createdAt,value
2022-09-04T00:00:08.620Z,4.22
2022-09-04T00:01:06.099Z,3.30
2022-09-04T00:02:01.775Z,3.90
2022-09-04T00:03:02.709Z,4.32
2022-09-04T00:03:54.593Z,4.28
2022-09-04T00:04:32.695Z,3.83
2022-09-04T00:05:24.112Z,4.65
2022-09-04T00:05:58.914Z,4.57
2022-09-04T00:06:42.723Z,3.97
2022-09-04T00:07:36.000Z,4.25
2022-09-04T00:08:50.154Z,4.07
2022-09-04T00:09:37.091Z,4.68
2022-09-04T00:10:19.460Z,4.25
2022-09-04T00:11:04.747Z,4.37
2022-09-04T00:11:48.916Z,4.40
2022-09-04T00:12:33.772Z,4.62
2022-09-04T00:13:36.688Z,4.40
2022-09-04T00:14:14.835Z,4.78
2022-09-04T00:14:55.316Z,4.32
2022-09-04T00:15:33.294Z,4.28
2022-09-04T00:16:20.147Z,4.22
2022-09-04T00:17:02.106Z,4.70
2022-09-04T00:17:52.767Z,3.97
2022-09-04T00:18:36.993Z,4.43
2022-09-04T00:19:14.626Z,4.90
2022-09-04T00:19:59.597Z,4.50
2022-09-04T00:20:42.893Z,4.10
2022-09-04T00:21:26.930Z,4.50
2022-09-04T00:22:01.317Z,4.53
2022-09-04T00:22:54.126Z,4.57
2022-09-04T00:23:44.714Z,4.55
2022-09-04T00:24:25.177Z,4.47
2022-09-04T00:25:17.190Z,5.12
2022-09-04T00:25:56.449Z,4.43
2022-09-04T00:26:43.563Z,4.70
2022-09-04T00:27:24.818Z,5.07
2022-09-04T00:28:32.190Z,4.45
2022-09-04T00:29:19.463Z,4.87
2022-09-04T00:30:08.323Z,4.68
2022-09-04T00:30:55.493Z,4.37
2022-09-04T00:31:37.199Z,4.55
2022-09-04T00:32:34.892Z,4.37
2022-09-04T00:33:19.241Z,4.60
2022-09-04T00:34:10.205Z,4.72
2022-09-04T00:34:57.498Z,4.65
2022-09-04T00:35:37.948Z,4.53
2022-09-04T00:36:13.589Z,4.45
2022-09-04T00:36:50.890Z,4.47
2022-09-04T00:37:29.543Z,4.87
2022-09-04T00:38:40.251Z,4.62
2022-09-04T00:39:21.349Z,4.65
2022-09-04T00:40:21.477Z,4.70
2022-09-04T00:41:07.780Z,4.95
2022-09-04T00:42:04.217Z,4.55
2022-09-04T00:43:06.673Z,4.50
2022-09-04T00:43:47.589Z,4.95
2022-09-04T00:44:40.434Z,4.18
2022-09-04T00:45:28.015Z,4.00
2022-09-04T00:46:18.400Z,4.40
2022-09-04T00:46:59.098Z,4.50
2022-09-04T00:48:43.691Z,4.35
2022-09-04T00:49:29.074Z,4.70
2022-09-04T00:50:30.368Z,4.87
2022-09-04T00:51:17.752Z,4.65
2022-09-04T00:51:56.829Z,4.72
2022-09-04T00:52:48.544Z,4.60
2022-09-04T00:53:31.185Z,4.75
2022-09-04T00:54:21.998Z,4.90
2022-09-04T00:55:32.450Z,4.80
2022-09-04T00:56:04.610Z,4.78
2022-09-04T00:56:54.985Z,4.68
2022-09-04T00:57:29.353Z,4.72
2022-09-04T00:58:20.371Z,4.75
2022-09-04T00:59:47.867Z,5.25
2022-09-04T01:00:56.974Z,4.50
2022-09-04T01:01:29.934Z,4.62
2022-09-04T01:02:23.712Z,4.60
2022-09-04T01:03:07.846Z,4.18
2022-09-04T01:03:45.562Z,4.55
2022-09-04T01:04:48.670Z,4.43
2022-09-04T01:05:45.542Z,4.32
2022-09-04T01:06:46.588Z,4.40
2022-09-04T01:07:40.078Z,4.85
2022-09-04T01:08:20.483Z,4.68
2022-09-04T01:09:22.683Z,4.78
2022-09-04T01:10:19.362Z,4.70
2022-09-04T01:11:03.902Z,4.55
2022-09-04T01:12:10.881Z,5.37
2022-09-04T01:12:46.009Z,4.78
2022-09-04T01:13:41.515Z,4.70
2022-09-04T01:14:41.387Z,4.28
2022-09-04T01:15:30.249Z,4.82
2022-09-04T01:16:23.496Z,4.47
2022-09-04T01:17:30.222Z,5.28
2022-09-04T01:18:16.966Z,5.28
2022-09-04T01:19:26.572Z,4.82
2022-09-04T01:20:06.114Z,4.60
2022-09-04T01:20:56.448Z,4.82
2022-09-04T01:21:47.712Z,5.05
2022-09-04T01:22:46.018Z,4.35
2022-09-04T01:23:36.325Z,5.03
2022-09-04T01:24:29.661Z,4.87
2022-09-04T01:25:25.799Z,4.45
2022-09-04T01:26:20.784Z,4.53
2022-09-04T01:27:09.976Z,4.57
2022-09-04T01:28:04.859Z,4.82
2022-09-04T01:28:43.808Z,4.72
2022-09-04T01:29:46.000Z,4.72
2022-09-04T01:30:20.092Z,4.95
2022-09-04T01:31:14.043Z,4.65
2022-09-04T01:32:01.390Z,4.82
2022-09-04T01:33:17.959Z,5.03
2022-09-04T01:33:58.217Z,4.45
2022-09-04T01:35:02.561Z,5.28
2022-09-04T01:35:58.613Z,4.80
2022-09-04T01:37:05.818Z,4.53
2022-09-04T01:38:02.686Z,5.03
2022-09-04T01:39:06.056Z,5.10
2022-09-04T01:39:43.497Z,4.78
2022-09-04T01:40:35.258Z,4.70
2022-09-04T01:41:27.560Z,5.57
2022-09-04T01:42:29.932Z,4.65
2022-09-04T01:43:13.623Z,4.95
2022-09-04T01:43:45.564Z,5.15
2022-09-04T01:44:17.497Z,5.53
2022-09-04T01:44:50.015Z,5.40
2022-09-04T01:45:38.251Z,5.00
2022-09-04T01:46:32.902Z,5.25
2022-09-04T01:47:32.123Z,4.93
2022-09-04T01:48:08.065Z,5.62
2022-09-04T01:49:14.262Z,5.40
2022-09-04T01:49:58.281Z,5.20
2022-09-04T01:50:33.037Z,5.28
2022-09-04T01:51:45.294Z,5.20
2022-09-04T01:52:46.251Z,5.25
2022-09-04T01:53:25.359Z,5.20
2022-09-04T01:54:35.237Z,5.62
2022-09-04T01:55:16.968Z,4.97
2022-09-04T01:56:04.177Z,5.50
2022-09-04T01:56:42.362Z,5.07
2022-09-04T01:57:45.128Z,5.45
2022-09-04T01:58:48.228Z,5.20
2022-09-04T01:59:30.147Z,5.60
2022-09-04T02:00:10.993Z,5.10
2022-09-04T02:01:21.189Z,5.60
2022-09-04T02:02:00.781Z,5.93
2022-09-04T02:02:53.222Z,5.40
2022-09-04T02:03:46.492Z,5.70
2022-09-04T02:04:54.613Z,5.37
2022-09-04T02:05:53.853Z,4.90
2022-09-04T02:06:33.485Z,5.75
2022-09-04T02:07:30.132Z,5.65
2022-09-04T02:08:21.861Z,5.70
2022-09-04T02:09:02.650Z,5.47
2022-09-04T02:10:18.370Z,5.93
2022-09-04T02:11:00.632Z,5.82
2022-09-04T02:11:33.013Z,5.45
2022-09-04T02:12:19.058Z,5.60
2022-09-04T02:13:08.716Z,5.87
2022-09-04T02:14:04.341Z,5.90
2022-09-04T02:14:58.302Z,5.57
2022-09-04T02:16:02.302Z,5.85
2022-09-04T02:17:02.838Z,5.57
2022-09-04T02:18:11.599Z,5.70
2022-09-04T02:18:53.267Z,5.72
2022-09-04T02:19:41.730Z,5.50
2022-09-04T02:20:27.188Z,5.43
2022-09-04T02:21:07.797Z,5.57
2022-09-04T02:22:04.086Z,6.03
2022-09-04T02:22:54.136Z,5.43
2022-09-04T02:23:45.542Z,5.43
2022-09-04T02:24:45.207Z,5.60
2022-09-04T02:25:38.057Z,5.32
2022-09-04T02:26:15.568Z,5.90
2022-09-04T02:26:52.910Z,5.10
2022-09-04T02:27:42.564Z,5.15
2022-09-04T02:28:39.735Z,5.95
2022-09-04T02:29:20.499Z,4.95
2022-09-04T02:31:01.962Z,4.40
2022-09-04T02:31:50.766Z,5.12
2022-09-04T02:32:37.853Z,4.68
2022-09-04T02:33:35.523Z,4.32
2022-09-04T02:34:29.114Z,4.43
2022-09-04T02:35:19.157Z,4.53
2022-09-04T02:36:04.922Z,4.07
2022-09-04T02:37:07.582Z,4.10
2022-09-04T02:38:01.317Z,4.12
2022-09-04T02:38:42.933Z,4.00
2022-09-04T02:39:41.903Z,4.35
2022-09-04T02:40:13.783Z,4.10
2022-09-04T02:40:51.652Z,3.90
2022-09-04T02:41:35.036Z,4.25
2022-09-04T02:42:27.885Z,4.20
2022-09-04T02:43:21.395Z,4.00
2022-09-04T02:44:41.283Z,3.80
2022-09-04T02:45:25.731Z,3.90
2022-09-04T02:46:24.052Z,3.80
2022-09-04T02:47:17.390Z,3.60
2022-09-04T02:47:52.765Z,3.62
2022-09-04T02:48:50.001Z,3.92
2022-09-04T02:50:07.659Z,3.50
2022-09-04T02:50:58.188Z,3.50
2022-09-04T02:51:45.522Z,3.60
2022-09-04T02:52:41.956Z,3.53
2022-09-04T02:53:32.720Z,3.10
2022-09-04T02:55:18.497Z,3.08
2022-09-04T02:55:59.447Z,3.28
2022-09-04T02:57:04.028Z,3.28
2022-09-04T02:58:15.275Z,2.90
2022-09-04T02:58:50.073Z,3.45
2022-09-04T02:59:50.386Z,2.80
2022-09-04T03:00:39.451Z,3.00
2022-09-04T03:01:24.017Z,2.78
2022-09-04T03:02:05.092Z,2.80
2022-09-04T03:03:02.930Z,2.75
2022-09-04T03:03:57.230Z,2.55
2022-09-04T03:04:52.668Z,2.50
2022-09-04T03:05:29.466Z,2.65
2022-09-04T03:06:48.693Z,2.67
2022-09-04T03:07:32.813Z,2.50
2022-09-04T03:08:07.651Z,2.42
2022-09-04T03:08:47.071Z,2.47
2022-09-04T03:09:44.189Z,2.28
2022-09-04T03:10:26.622Z,2.50
2022-09-04T03:11:23.426Z,2.50
2022-09-04T03:12:15.290Z,2.33
2022-09-04T03:13:09.130Z,2.25
2022-09-04T03:13:54.678Z,2.50
2022-09-04T03:15:03.528Z,2.45
2022-09-04T03:15:45.215Z,2.37
2022-09-04T03:16:35.904Z,2.30
2022-09-04T03:17:26.016Z,2.37
2022-09-04T03:18:25.627Z,2.10
2022-09-04T03:19:16.539Z,2.28
2022-09-04T03:20:41.752Z,2.05
2022-09-04T03:21:21.025Z,2.10
2022-09-04T03:22:04.209Z,1.90
2022-09-04T03:22:54.522Z,1.90
2022-09-04T03:23:42.636Z,2.30
2022-09-04T03:24:26.345Z,2.15
2022-09-04T03:25:20.985Z,2.30
2022-09-04T03:26:01.811Z,2.10
2022-09-04T03:26:44.985Z,2.33
2022-09-04T03:27:19.077Z,1.90
2022-09-04T03:27:51.259Z,1.98
2022-09-04T03:28:34.726Z,2.05
2022-09-04T03:29:15.789Z,2.15
2022-09-04T03:30:01.412Z,2.08
2022-09-04T03:30:36.270Z,2.30
2022-09-04T03:31:29.687Z,1.80
2022-09-04T03:32:16.839Z,2.03
2022-09-04T03:33:15.360Z,2.15
2022-09-04T03:34:02.781Z,2.05
2022-09-04T03:34:46.883Z,1.95
2022-09-04T03:35:42.618Z,2.20
2022-09-04T03:36:20.799Z,1.98
2022-09-04T03:37:20.235Z,1.92
2022-09-04T03:38:33.054Z,2.00
2022-09-04T03:39:33.678Z,2.00
2022-09-04T03:40:08.745Z,1.98
2022-09-04T03:40:45.593Z,1.87
2022-09-04T03:41:55.164Z,2.10
2022-09-04T03:42:47.296Z,1.60
2022-09-04T03:43:31.640Z,2.00
2022-09-04T03:44:31.701Z,1.80
2022-09-04T03:45:06.261Z,2.30
2022-09-04T03:45:59.167Z,1.83
2022-09-04T03:46:40.245Z,2.10
2022-09-04T03:47:18.222Z,2.40
2022-09-04T03:47:59.101Z,1.90
2022-09-04T03:48:37.101Z,2.20
2022-09-04T03:49:12.032Z,2.00
2022-09-04T03:50:09.945Z,2.00
2022-09-04T03:50:55.151Z,1.87
2022-09-04T03:51:54.765Z,1.90
2022-09-04T03:52:45.971Z,1.90
2022-09-04T03:53:50.863Z,1.90
2022-09-04T03:55:10.640Z,2.30
2022-09-04T03:56:17.770Z,2.05
2022-09-04T03:57:07.637Z,2.08
2022-09-04T03:58:05.396Z,1.87
2022-09-04T03:59:05.585Z,2.05
2022-09-04T04:00:07.969Z,2.17
2022-09-04T04:00:57.172Z,2.03
2022-09-04T04:01:41.419Z,2.15
2022-09-04T04:02:34.943Z,1.95
2022-09-04T04:03:40.566Z,1.92
2022-09-04T04:04:35.258Z,1.83
2022-09-04T04:05:37.139Z,1.75
2022-09-04T04:07:19.862Z,2.20
2022-09-04T04:07:57.612Z,2.03
2022-09-04T04:08:38.525Z,2.20
2022-09-04T04:09:22.566Z,1.77
2022-09-04T04:10:03.535Z,1.95
2022-09-04T04:11:10.788Z,2.17
2022-09-04T04:12:19.110Z,1.98
2022-09-04T04:12:53.776Z,1.90
2022-09-04T04:13:58.517Z,1.92
2022-09-04T04:15:07.837Z,1.83
2022-09-04T04:16:08.502Z,2.33
2022-09-04T04:16:55.811Z,2.12
2022-09-04T04:18:09.133Z,2.22
2022-09-04T04:19:15.706Z,1.80
2022-09-04T04:19:55.442Z,2.00
2022-09-04T04:20:34.777Z,1.90
2022-09-04T04:21:54.843Z,2.00
2022-09-04T04:23:08.108Z,1.92
2022-09-04T04:24:07.745Z,1.90
2022-09-04T04:25:01.262Z,1.90
2022-09-04T04:26:07.740Z,1.83
2022-09-04T04:26:50.589Z,2.10
2022-09-04T04:27:38.177Z,1.80
2022-09-04T04:28:38.045Z,1.70
2022-09-04T04:29:12.929Z,1.62
2022-09-04T04:30:05.178Z,2.10
2022-09-04T04:30:54.679Z,1.65
2022-09-04T04:32:13.537Z,1.90
2022-09-04T04:33:15.446Z,1.90
2022-09-04T04:33:53.089Z,2.00
2022-09-04T04:34:38.011Z,2.00
2022-09-04T04:35:16.134Z,1.85
2022-09-04T04:36:07.011Z,1.77
2022-09-04T04:36:41.854Z,1.85
2022-09-04T04:37:31.564Z,1.87
2022-09-04T04:38:31.353Z,2.15
2022-09-04T04:39:32.575Z,1.75
2022-09-04T04:40:27.912Z,2.08
2022-09-04T04:41:26.309Z,1.75
2022-09-04T04:42:07.057Z,2.00
2022-09-04T04:43:48.546Z,1.87
2022-09-04T04:45:02.532Z,2.25
2022-09-04T04:45:59.266Z,1.73
2022-09-04T04:46:51.546Z,2.15
2022-09-04T04:47:58.844Z,2.00
2022-09-04T04:48:52.337Z,1.90
2022-09-04T04:49:34.200Z,1.92
2022-09-04T04:50:11.811Z,2.10
2022-09-04T04:51:23.245Z,2.05
2022-09-04T04:52:15.865Z,2.08
2022-09-04T04:53:01.094Z,1.98
2022-09-04T04:53:57.891Z,2.08
2022-09-04T04:55:07.580Z,1.85
2022-09-04T04:55:50.399Z,2.20
2022-09-04T04:56:48.239Z,1.80
2022-09-04T04:57:36.541Z,2.20
2022-09-04T04:58:26.153Z,1.90
2022-09-04T04:59:07.145Z,2.00
2022-09-04T05:00:08.918Z,1.90
2022-09-04T05:00:58.811Z,2.10
2022-09-04T05:02:00.678Z,2.03
2022-09-04T05:02:42.169Z,1.98
2022-09-04T05:03:23.068Z,1.90
2022-09-04T05:04:34.788Z,2.08
2022-09-04T05:05:15.919Z,2.00
2022-09-04T05:06:18.163Z,1.83
2022-09-04T05:07:17.941Z,1.80
2022-09-04T05:07:55.898Z,1.90
2022-09-04T05:08:50.810Z,1.98
2022-09-04T05:09:40.079Z,1.70
2022-09-04T05:10:37.898Z,2.08
2022-09-04T05:11:35.256Z,2.15
2022-09-04T05:12:25.348Z,1.77
2022-09-04T05:13:39.478Z,1.85
2022-09-04T05:14:37.533Z,2.15
2022-09-04T05:15:32.145Z,2.10
2022-09-04T05:16:12.502Z,1.83
2022-09-04T05:17:20.288Z,2.00
2022-09-04T05:18:21.540Z,2.17
2022-09-04T05:19:02.065Z,1.83
2022-09-04T05:19:45.146Z,2.00
2022-09-04T05:20:51.081Z,1.80
2022-09-04T05:21:50.668Z,1.75
2022-09-04T05:22:35.317Z,1.92
2022-09-04T05:23:38.351Z,1.50
2022-09-04T05:24:51.928Z,1.70
2022-09-04T05:25:50.647Z,2.00
2022-09-04T05:26:48.382Z,1.90
2022-09-04T05:27:20.247Z,2.00
2022-09-04T05:28:26.160Z,1.90
2022-09-04T05:29:17.698Z,2.03
2022-09-04T05:31:02.934Z,2.08
2022-09-04T05:31:40.576Z,2.30
2022-09-04T05:32:30.663Z,2.20
2022-09-04T05:33:40.377Z,1.70
2022-09-04T05:34:13.001Z,2.33
2022-09-04T05:34:51.729Z,2.03
2022-09-04T05:35:45.444Z,2.20
2022-09-04T05:36:41.337Z,2.20
2022-09-04T05:37:42.037Z,1.85
2022-09-04T05:38:20.244Z,2.10
2022-09-04T05:39:13.944Z,2.17
2022-09-04T05:40:19.653Z,2.00
2022-09-04T05:41:05.614Z,2.15
2022-09-04T05:42:06.806Z,2.30
2022-09-04T05:42:43.287Z,1.80
2022-09-04T05:43:40.052Z,2.58
2022-09-04T05:44:30.155Z,2.12
2022-09-04T05:45:23.944Z,1.92
2022-09-04T05:46:30.469Z,1.92
2022-09-04T05:47:38.770Z,1.95
2022-09-04T05:48:10.603Z,1.90
2022-09-04T05:49:15.174Z,1.80
2022-09-04T05:50:08.355Z,2.10
2022-09-04T05:50:49.666Z,1.98
2022-09-04T05:51:38.884Z,2.22
2022-09-04T05:52:20.140Z,2.42
2022-09-04T05:53:10.847Z,2.20
2022-09-04T05:54:25.878Z,2.15
2022-09-04T05:55:12.551Z,2.22
2022-09-04T05:56:04.735Z,2.20
2022-09-04T05:57:10.050Z,1.98
2022-09-04T05:57:59.043Z,2.10
2022-09-04T05:58:30.946Z,2.33
2022-09-04T05:59:32.115Z,1.95
2022-09-04T06:00:19.273Z,2.05
2022-09-04T06:01:16.126Z,1.92
2022-09-04T06:01:59.887Z,2.00
2022-09-04T06:03:29.280Z,1.92
2022-09-04T06:04:23.751Z,2.12
2022-09-04T06:05:04.669Z,2.08
2022-09-04T06:05:57.477Z,2.00
2022-09-04T06:06:50.417Z,2.05
2022-09-04T06:07:27.749Z,2.10
2022-09-04T06:08:11.861Z,1.75
2022-09-04T06:09:01.550Z,2.20
2022-09-04T06:09:51.299Z,2.00
2022-09-04T06:10:35.082Z,2.08
2022-09-04T06:11:09.666Z,2.22
2022-09-04T06:11:51.452Z,2.40
2022-09-04T06:12:23.330Z,2.10
2022-09-04T06:12:55.212Z,2.30
2022-09-04T06:13:39.494Z,2.20
2022-09-04T06:14:29.693Z,2.08
2022-09-04T06:15:26.049Z,2.20
2022-09-04T06:16:26.114Z,2.05
2022-09-04T06:17:04.034Z,2.28
2022-09-04T06:17:51.167Z,2.47
2022-09-04T06:18:40.720Z,2.30
2022-09-04T06:19:47.754Z,2.30
2022-09-04T06:20:33.420Z,1.98
2022-09-04T06:21:27.124Z,2.35
2022-09-04T06:22:05.390Z,2.25
2022-09-04T06:22:57.054Z,2.30
2022-09-04T06:24:07.845Z,2.65
2022-09-04T06:25:17.579Z,2.33
2022-09-04T06:26:04.800Z,2.05
2022-09-04T06:26:56.492Z,2.20
2022-09-04T06:28:06.247Z,2.22
2022-09-04T06:29:05.980Z,2.20
2022-09-04T06:29:56.048Z,2.20
2022-09-04T06:30:43.305Z,2.10
2022-09-04T06:31:21.038Z,2.33
2022-09-04T06:32:11.077Z,2.08
2022-09-04T06:32:43.221Z,2.25
2022-09-04T06:33:44.702Z,2.12
2022-09-04T06:34:34.719Z,2.28
2022-09-04T06:35:27.685Z,2.83
2022-09-04T06:36:05.621Z,2.40
2022-09-04T06:36:48.693Z,2.60
2022-09-04T06:37:32.406Z,2.10
2022-09-04T06:38:29.308Z,2.53
2022-09-04T06:39:45.086Z,2.12
2022-09-04T06:40:52.683Z,2.17
2022-09-04T06:41:54.505Z,2.20
2022-09-04T06:42:48.182Z,2.42
2022-09-04T06:43:40.581Z,2.55
2022-09-04T06:44:29.499Z,2.70
2022-09-04T06:45:25.247Z,2.45
2022-09-04T06:46:26.980Z,2.50
2022-09-04T06:47:17.318Z,2.40
2022-09-04T06:48:00.176Z,2.37
2022-09-04T06:48:38.547Z,2.37
2022-09-04T06:49:47.504Z,2.30
2022-09-04T06:50:22.941Z,2.12
2022-09-04T06:51:11.095Z,2.37
2022-09-04T06:51:55.050Z,2.10
2022-09-04T06:52:46.113Z,2.30
2022-09-04T06:53:42.822Z,2.20
2022-09-04T06:54:21.212Z,2.30
2022-09-04T06:55:02.931Z,2.10
2022-09-04T06:55:46.036Z,1.90
2022-09-04T06:56:26.911Z,2.37
2022-09-04T06:57:26.358Z,2.20
2022-09-04T06:58:16.959Z,2.33
2022-09-04T06:59:10.358Z,2.20
2022-09-04T07:00:01.923Z,2.53
2022-09-04T07:01:02.286Z,2.62
2022-09-04T07:02:17.892Z,2.20
2022-09-04T07:02:59.597Z,2.33
2022-09-04T07:03:40.658Z,2.22
2022-09-04T07:04:39.799Z,2.53
2022-09-04T07:05:14.937Z,2.20
2022-09-04T07:06:10.909Z,2.40
2022-09-04T07:06:54.695Z,2.42
2022-09-04T07:07:32.339Z,2.40
2022-09-04T07:08:13.198Z,2.33
2022-09-04T07:09:05.073Z,2.75
2022-09-04T07:09:46.765Z,2.58
2022-09-04T07:10:27.748Z,2.40
2022-09-04T07:11:47.414Z,2.70
2022-09-04T07:12:38.863Z,2.80
2022-09-04T07:13:37.862Z,2.95
2022-09-04T07:14:33.958Z,2.62
2022-09-04T07:15:12.639Z,2.50
2022-09-04T07:15:58.266Z,2.75
2022-09-04T07:17:16.109Z,2.50
2022-09-04T07:17:49.348Z,2.85
2022-09-04T07:18:34.543Z,2.58
2022-09-04T07:19:28.605Z,2.97
2022-09-04T07:20:32.426Z,2.97
2022-09-04T07:21:30.486Z,2.47
2022-09-04T07:22:08.142Z,2.30
2022-09-04T07:22:45.979Z,2.55
2022-09-04T07:23:36.354Z,2.78
2022-09-04T07:25:02.003Z,2.78
2022-09-04T07:25:44.403Z,2.50
2022-09-04T07:26:32.214Z,3.03
2022-09-04T07:27:18.308Z,2.95
2022-09-04T07:27:53.123Z,3.20
2022-09-04T07:29:00.003Z,2.83
2022-09-04T07:29:37.086Z,3.17
2022-09-04T07:30:11.785Z,3.00
2022-09-04T07:30:53.969Z,3.47
2022-09-04T07:31:35.068Z,3.30
2022-09-04T07:32:54.972Z,3.00
2022-09-04T07:33:50.484Z,3.08
2022-09-04T07:34:51.206Z,3.08
2022-09-04T07:35:37.037Z,2.75
2022-09-04T07:36:20.966Z,3.08
2022-09-04T07:37:30.383Z,2.67
2022-09-04T07:38:24.898Z,2.70
2022-09-04T07:39:01.743Z,2.65
2022-09-04T07:39:37.548Z,3.10
2022-09-04T07:40:31.778Z,2.85
2022-09-04T07:41:17.687Z,3.10
2022-09-04T07:42:04.290Z,3.03
2022-09-04T07:42:48.275Z,2.75
2022-09-04T07:43:54.818Z,2.85
2022-09-04T07:44:39.085Z,2.60
2022-09-04T07:45:36.579Z,2.97
2022-09-04T07:46:33.502Z,2.95
2022-09-04T07:47:30.440Z,2.60
2022-09-04T07:48:22.200Z,3.10
2022-09-04T07:49:10.176Z,2.85
2022-09-04T07:50:00.807Z,3.20
2022-09-04T07:50:38.101Z,3.33
2022-09-04T07:51:16.930Z,3.05
2022-09-04T07:51:58.963Z,2.95
2022-09-04T07:52:50.367Z,3.12
2022-09-04T07:53:31.869Z,2.85
2022-09-04T07:54:33.295Z,2.60
2022-09-04T07:55:46.901Z,2.78
2022-09-04T07:56:49.395Z,3.10
2022-09-04T07:57:24.041Z,2.95
2022-09-04T07:58:38.478Z,3.10
2022-09-04T07:59:29.452Z,2.80
2022-09-04T08:00:18.263Z,2.80
2022-09-04T08:01:15.327Z,3.10
2022-09-04T08:02:19.553Z,3.05
2022-09-04T08:02:57.095Z,2.78
2022-09-04T08:03:54.434Z,2.95
2022-09-04T08:04:46.287Z,2.85
2022-09-04T08:05:27.772Z,3.35
2022-09-04T08:06:14.127Z,3.60
2022-09-04T08:06:56.944Z,3.78
2022-09-04T08:08:08.211Z,4.00
2022-09-04T08:08:58.901Z,3.75
2022-09-04T08:10:24.152Z,3.22
2022-09-04T08:11:15.076Z,3.35
2022-09-04T08:12:32.030Z,3.08
2022-09-04T08:13:14.155Z,3.00
2022-09-04T08:14:00.447Z,3.15
2022-09-04T08:14:37.077Z,3.20
2022-09-04T08:15:24.435Z,3.00
2022-09-04T08:16:14.436Z,2.90
2022-09-04T08:17:25.519Z,3.00
2022-09-04T08:18:11.369Z,3.15
2022-09-04T08:19:03.457Z,2.85
2022-09-04T08:19:58.282Z,2.80
2022-09-04T08:21:05.241Z,3.10
2022-09-04T08:21:41.253Z,3.25
2022-09-04T08:22:34.893Z,2.95
2022-09-04T08:23:29.662Z,3.20
2022-09-04T08:24:16.534Z,2.97
2022-09-04T08:24:55.514Z,2.75
2022-09-04T08:25:45.785Z,3.00
2022-09-04T08:26:39.465Z,3.35
2022-09-04T08:28:00.066Z,3.40
2022-09-04T08:28:47.887Z,3.37
2022-09-04T08:29:54.905Z,3.00
2022-09-04T08:30:35.953Z,3.15
2022-09-04T08:31:21.232Z,3.45
2022-09-04T08:31:55.412Z,3.20
2022-09-04T08:32:38.093Z,3.30
2022-09-04T08:33:10.301Z,3.67
2022-09-04T08:34:24.530Z,3.50
2022-09-04T08:35:05.744Z,3.20
2022-09-04T08:35:43.240Z,3.42
2022-09-04T08:36:37.985Z,3.53
2022-09-04T08:37:39.929Z,3.10
2022-09-04T08:38:26.957Z,3.28
2022-09-04T08:39:23.185Z,3.25
2022-09-04T08:40:25.778Z,3.10
2022-09-04T08:40:57.802Z,3.42
2022-09-04T08:41:52.244Z,3.60
2022-09-04T08:42:37.075Z,3.58
2022-09-04T08:43:20.803Z,3.60
2022-09-04T08:44:23.501Z,4.07
2022-09-04T08:45:26.096Z,3.67
2022-09-04T08:46:29.974Z,4.00
2022-09-04T08:47:41.284Z,3.67
2022-09-04T08:48:16.733Z,4.30
2022-09-04T08:49:10.512Z,3.90
2022-09-04T08:49:45.283Z,3.20
2022-09-04T08:50:46.266Z,3.67
2022-09-04T08:51:59.182Z,3.45
2022-09-04T08:52:46.083Z,3.55
2022-09-04T08:53:44.052Z,3.60
2022-09-04T08:54:34.391Z,3.55
2022-09-04T08:56:18.591Z,3.60
2022-09-04T08:57:56.697Z,3.50
2022-09-04T08:59:24.724Z,3.67
2022-09-04T09:00:11.609Z,3.65
2022-09-04T09:01:03.366Z,3.22
2022-09-04T09:01:35.460Z,3.37
2022-09-04T09:02:28.921Z,3.60
2022-09-04T09:03:22.652Z,3.00
2022-09-04T09:04:32.677Z,3.70
2022-09-04T09:05:23.976Z,3.00
2022-09-04T09:06:07.012Z,3.35
2022-09-04T09:06:51.257Z,3.83
2022-09-04T09:07:55.615Z,3.22
2022-09-04T09:09:10.742Z,3.25
2022-09-04T09:10:04.261Z,3.72
2022-09-04T09:11:11.200Z,3.25
2022-09-04T09:12:10.930Z,3.00
2022-09-04T09:12:57.980Z,3.62
2022-09-04T09:14:01.813Z,3.55
2022-09-04T09:14:49.551Z,3.10
2022-09-04T09:15:51.832Z,3.37
2022-09-04T09:16:32.775Z,3.40
2022-09-04T09:17:13.259Z,3.25
2022-09-04T09:18:02.656Z,3.30
2022-09-04T09:19:00.351Z,3.12
2022-09-04T09:19:56.493Z,3.35
2022-09-04T09:20:38.311Z,2.90
2022-09-04T09:21:58.148Z,2.85
2022-09-04T09:23:08.153Z,3.15
2022-09-04T09:24:03.870Z,2.85
2022-09-04T09:24:42.017Z,3.10
2022-09-04T09:25:24.263Z,3.10
2022-09-04T09:26:18.144Z,2.80
2022-09-04T09:26:49.998Z,3.10
2022-09-04T09:27:52.297Z,3.08
2022-09-04T09:28:39.819Z,3.15
2022-09-04T09:29:48.731Z,3.33
2022-09-04T09:30:22.532Z,3.10
2022-09-04T09:31:28.748Z,3.22
2022-09-04T09:32:38.648Z,3.17
2022-09-04T09:33:35.093Z,3.50
2022-09-04T09:34:12.785Z,3.37
2022-09-04T09:35:09.863Z,3.40
2022-09-04T09:36:07.672Z,3.53
2022-09-04T09:36:48.611Z,3.45
2022-09-04T09:37:31.581Z,3.03
2022-09-04T09:38:19.990Z,3.17
2022-09-04T09:39:16.451Z,3.45
2022-09-04T09:40:10.054Z,3.22
2022-09-04T09:40:56.078Z,3.05
2022-09-04T09:41:42.619Z,3.10
2022-09-04T09:42:32.940Z,3.40
2022-09-04T09:43:42.240Z,3.03
2022-09-04T09:44:35.954Z,3.33
2022-09-04T09:45:23.247Z,2.80
2022-09-04T09:46:01.030Z,2.92
2022-09-04T09:46:51.501Z,3.45
2022-09-04T09:47:38.764Z,3.80
2022-09-04T09:48:29.328Z,3.30
2022-09-04T09:49:32.359Z,3.00
2022-09-04T09:50:07.211Z,3.15
2022-09-04T09:51:04.251Z,3.20
2022-09-04T09:51:59.485Z,3.33
2022-09-04T09:53:08.657Z,2.80
2022-09-04T09:53:44.990Z,3.03
2022-09-04T09:54:49.738Z,3.20
2022-09-04T09:56:04.148Z,3.20
2022-09-04T09:56:55.657Z,3.28
2022-09-04T09:57:45.752Z,3.05
2022-09-04T09:58:39.170Z,3.50
2022-09-04T09:59:48.637Z,3.17
2022-09-04T10:00:25.420Z,3.20
2022-09-04T10:01:08.724Z,2.85
2022-09-04T10:02:13.126Z,2.83
2022-09-04T10:03:27.634Z,2.90
2022-09-04T10:04:21.556Z,3.20
2022-09-04T10:05:19.307Z,3.28
2022-09-04T10:06:00.201Z,3.05
2022-09-04T10:06:51.014Z,3.50
2022-09-04T10:07:51.022Z,3.35
2022-09-04T10:08:41.204Z,2.90
2022-09-04T10:09:15.829Z,3.28
2022-09-04T10:10:08.766Z,2.83
2022-09-04T10:11:08.915Z,3.08
2022-09-04T10:12:25.970Z,3.00
2022-09-04T10:13:32.241Z,3.08
2022-09-04T10:14:31.545Z,3.05
2022-09-04T10:15:16.549Z,3.25
2022-09-04T10:16:25.963Z,2.95
2022-09-04T10:17:17.007Z,3.12
2022-09-04T10:18:07.105Z,3.42
2022-09-04T10:19:16.530Z,3.15
2022-09-04T10:20:22.596Z,3.03
2022-09-04T10:21:32.130Z,3.15
2022-09-04T10:22:41.385Z,3.45
2022-09-04T10:23:25.316Z,3.00
2022-09-04T10:24:22.057Z,3.30
2022-09-04T10:25:32.647Z,3.28
2022-09-04T10:26:19.784Z,3.00
2022-09-04T10:27:12.388Z,3.15
2022-09-04T10:28:22.315Z,2.97
2022-09-04T10:28:57.185Z,3.20
2022-09-04T10:29:50.631Z,2.70
2022-09-04T10:30:24.460Z,3.17
2022-09-04T10:31:27.064Z,2.78
2022-09-04T10:32:19.392Z,3.53
2022-09-04T10:33:48.452Z,3.17
2022-09-04T10:34:29.753Z,3.08
2022-09-04T10:35:10.863Z,3.12
2022-09-04T10:36:03.798Z,3.37
2022-09-04T10:36:59.779Z,3.60
2022-09-04T10:37:50.341Z,3.12
2022-09-04T10:39:03.431Z,3.80
2022-09-04T10:40:09.249Z,3.08
2022-09-04T10:41:15.667Z,3.55
2022-09-04T10:42:01.309Z,3.20
2022-09-04T10:42:50.423Z,3.70
2022-09-04T10:43:44.446Z,3.72
2022-09-04T10:44:31.647Z,3.20
2022-09-04T10:45:31.595Z,3.33
2022-09-04T10:46:20.706Z,2.97
2022-09-04T10:47:28.068Z,3.30
2022-09-04T10:48:31.118Z,2.92
2022-09-04T10:49:45.363Z,3.20
2022-09-04T10:50:46.305Z,3.15
2022-09-04T10:51:37.824Z,3.55
2022-09-04T10:52:19.698Z,3.33
2022-09-04T10:53:31.359Z,3.30
2022-09-04T10:54:30.082Z,2.92
2022-09-04T10:55:13.876Z,3.17
2022-09-04T10:56:05.827Z,3.72
2022-09-04T10:56:56.197Z,3.20
2022-09-04T10:57:40.191Z,2.95
2022-09-04T10:58:34.084Z,3.47
2022-09-04T10:59:44.454Z,3.10
2022-09-04T11:00:18.488Z,3.40
2022-09-04T11:01:03.450Z,3.65
2022-09-04T11:01:41.414Z,3.17
2022-09-04T11:02:47.535Z,3.22
2022-09-04T11:03:22.370Z,2.83
2022-09-04T11:04:13.890Z,3.08
2022-09-04T11:05:15.694Z,3.65
2022-09-04T11:06:02.818Z,3.40
2022-09-04T11:07:11.421Z,3.60
2022-09-04T11:08:13.671Z,3.28
2022-09-04T11:09:03.939Z,3.50
2022-09-04T11:09:50.794Z,2.80
2022-09-04T11:10:41.659Z,3.30
2022-09-04T11:11:32.042Z,3.62
2022-09-04T11:12:19.153Z,3.12
2022-09-04T11:13:09.328Z,3.42
2022-09-04T11:14:03.763Z,3.05
2022-09-04T11:14:56.975Z,3.03
2022-09-04T11:15:48.075Z,3.00
2022-09-04T11:16:48.118Z,3.47
2022-09-04T11:17:52.716Z,2.92
2022-09-04T11:18:49.281Z,3.20
2022-09-04T11:19:39.785Z,8.77
2022-09-04T11:20:16.160Z,7.05
2022-09-04T11:20:50.868Z,3.45
2022-09-04T11:21:25.721Z,3.33
2022-09-04T11:22:35.020Z,4.12
2022-09-04T11:23:07.326Z,3.37
2022-09-04T11:24:03.035Z,3.25
2022-09-04T11:24:47.288Z,3.47
2022-09-04T11:25:44.439Z,3.33
2022-09-04T11:26:38.072Z,3.20
2022-09-04T11:27:45.350Z,3.20
2022-09-04T11:28:40.370Z,3.35
2022-09-04T11:29:41.328Z,2.83
2022-09-04T11:30:17.718Z,3.50
2022-09-04T11:31:25.057Z,3.10
2022-09-04T11:32:13.599Z,3.65
2022-09-04T11:33:19.569Z,3.17
2022-09-04T11:33:54.422Z,3.22
2022-09-04T11:34:45.055Z,3.28
2022-09-04T11:35:23.156Z,3.35
2022-09-04T11:36:19.394Z,3.20
2022-09-04T11:36:57.225Z,3.75
2022-09-04T11:37:35.689Z,3.62